| time (UTC) | temp F | wind direction | speed knots | gust knots | rain 1hr in | rain 24hr in | rain mn in | humidity % | barometer mb |
| 20260503213503 | 64 | 27 | 3.5 | 8.7 | 0.00 | 0.00 | 0.00 | 48 | 1015.9 |
| 20260503212002 | 64 | 19 | 1.7 | 6.1 | 0.00 | 0.00 | 0.00 | 47 | 1016.2 |
| 20260503211002 | 64 | 3 | 1.7 | 7.0 | 0.00 | 0.00 | 0.00 | 49 | 1016.3 |
| 20260503210503 | 64 | 13 | 2.6 | 6.1 | 0.00 | 0.00 | 0.00 | 48 | 1016.3 |
| 20260503205502 | 64 | 8 | 2.6 | 8.7 | 0.00 | 0.00 | 0.00 | 47 | 1016.2 |
| 20260503205003 | 64 | 350 | 1.7 | 5.2 | 0.00 | 0.00 | 0.00 | 47 | 1016.2 |
| 20260503204503 | 64 | 9 | 0.9 | 5.2 | 0.00 | 0.00 | 0.00 | 48 | 1016.3 |
| 20260503204003 | 64 | 25 | 2.6 | 7.0 | 0.00 | 0.00 | 0.00 | 49 | 1016.4 |
| 20260503203003 | 64 | 12 | 2.6 | 8.7 | 0.00 | 0.00 | 0.00 | 48 | 1016.6 |
| 20260503202503 | 64 | 356 | 1.7 | 8.7 | 0.00 | 0.00 | 0.00 | 48 | 1016.7 |
| 20260503202003 | 64 | 4 | 1.7 | 5.2 | 0.00 | 0.00 | 0.00 | 49 | 1016.7 |
| 20260503201503 | 64 | 22 | 1.7 | 6.1 | 0.00 | 0.00 | 0.00 | 48 | 1016.8 |
| 20260503201003 | 63 | 20 | 2.6 | 8.7 | 0.00 | 0.00 | 0.00 | 50 | 1016.8 |
| 20260503200503 | 63 | 358 | 2.6 | 8.7 | 0.00 | 0.00 | 0.00 | 48 | 1016.8 |
| 20260503200003 | 63 | 355 | 2.6 | 8.7 | 0.00 | 0.00 | 0.00 | 46 | 1017.0 |
| 20260503195502 | 64 | 24 | 2.6 | 8.7 | 0.00 | 0.00 | 0.00 | 46 | 1017.1 |
| 20260503195003 | 64 | 16 | 1.7 | 7.0 | 0.00 | 0.00 | 0.00 | 47 | 1017.1 |
| 20260503194503 | 63 | 20 | 1.7 | 6.1 | 0.00 | 0.00 | 0.00 | 49 | 1017.1 |
| 20260503194003 | 63 | 17 | 2.6 | 6.1 | 0.00 | 0.00 | 0.00 | 49 | 1017.2 |
| 20260503193503 | 63 | 15 | 1.7 | 7.0 | 0.00 | 0.00 | 0.00 | 47 | 1017.3 |
| 20260503193002 | 63 | 28 | 1.7 | 7.0 | 0.00 | 0.00 | 0.00 | 48 | 1017.4 |
| 20260503192503 | 63 | 92 | 0.9 | 5.2 | 0.00 | 0.00 | 0.00 | 48 | 1017.5 |
| 20260503191503 | 63 | 36 | 2.6 | 6.1 | 0.00 | 0.00 | 0.00 | 50 | 1017.6 |
| 20260503191003 | 63 | 38 | 1.7 | 6.1 | 0.00 | 0.00 | 0.00 | 51 | 1017.6 |
| 20260503190503 | 62 | 36 | 1.7 | 5.2 | 0.00 | 0.00 | 0.00 | 51 | 1017.7 |
| 20260503190003 | 62 | 49 | 1.7 | 5.2 | 0.00 | 0.00 | 0.00 | 50 | 1017.7 |
| 20260503185503 | 62 | 82 | 0.9 | 5.2 | 0.00 | 0.00 | 0.00 | 52 | 1017.9 |
| 20260503185003 | 62 | 8 | 0.9 | 5.2 | 0.00 | 0.00 | 0.00 | 53 | 1017.9 |
| 20260503184503 | 62 | 1 | 0.9 | 2.6 | 0.00 | 0.00 | 0.00 | 48 | 1017.9 |
| 20260503184003 | 62 | 3 | 0.9 | 2.6 | 0.00 | 0.00 | 0.00 | 50 | 1017.9 |
| 20260503183003 | 63 | 23 | 1.7 | 8.7 | 0.00 | 0.00 | 0.00 | 48 | 1018.0 |
| 20260503182503 | 62 | 150 | 1.7 | 6.1 | 0.00 | 0.00 | 0.00 | 48 | 1018.0 |
| 20260503182003 | 62 | 152 | 1.7 | 6.1 | 0.00 | 0.00 | 0.00 | 47 | 1018.1 |
| 20260503181504 | 62 | 143 | 0.9 | 3.5 | 0.00 | 0.00 | 0.00 | 50 | 1018.2 |
| 20260503181003 | 62 | 214 | 0.9 | 2.6 | 0.00 | 0.00 | 0.00 | 49 | 1018.2 |
| 20260503180503 | 62 | 209 | 0.9 | 2.6 | 0.00 | 0.00 | 0.00 | 47 | 1018.2 |
| 20260503180004 | 62 | 58 | 0.9 | 6.1 | 0.00 | 0.00 | 0.00 | 45 | 1018.3 |
| 20260503175502 | 63 | 16 | 0.9 | 6.1 | 0.00 | 0.00 | 0.00 | 45 | 1018.4 |
| 20260503175003 | 63 | 116 | 0.9 | 2.6 | 0.00 | 0.00 | 0.00 | 46 | 1018.4 |
| 20260503174003 | 63 | 35 | 1.7 | 5.2 | 0.00 | 0.00 | 0.00 | 48 | 1018.6 |
| 20260503173003 | 62 | 359 | 0.9 | 3.5 | 0.00 | 0.00 | 0.00 | 47 | 1018.5 |
| 20260503172503 | 61 | 350 | 0.9 | 3.5 | 0.00 | 0.00 | 0.00 | 49 | 1018.6 |
| 20260503172003 | 60 | 179 | 0.9 | 5.2 | 0.00 | 0.00 | 0.00 | 50 | 1018.8 |
| 20260503171502 | 60 | 182 | 0.9 | 5.2 | 0.00 | 0.00 | 0.00 | 46 | 1018.8 |
| 20260503171003 | 59 | 202 | 0.9 | 2.6 | 0.00 | 0.00 | 0.00 | 47 | 1018.9 |
| 20260503170503 | 59 | 205 | 0.9 | 5.2 | 0.00 | 0.00 | 0.00 | 49 | 1019.1 |
| 20260503151003 | 51 | 41 | 1.7 | 5.2 | 0.00 | 0.00 | 0.00 | 65 | 1020.2 |
| 20260503150503 | 50 | 188 | 0.9 | 5.2 | 0.00 | 0.00 | 0.00 | 64 | 1020.2 |
| 20260503131003 | 45 | 170 | 2.6 | 6.1 | 0.00 | 0.00 | 0.00 | 73 | 1019.7 |
| 20260503130504 | 45 | 165 | 1.7 | 6.1 | 0.00 | 0.00 | 0.00 | 74 | 1019.7 |
| 20260503110504 | 38 | 158 | 0.0 | 0.9 | 0.00 | 0.00 | 0.00 | 91 | 1019.0 |
| 20260503072504 | 40 | 0 | 0.0 | 0.0 | 0.00 | 0.00 | 0.00 | 86 | 1016.8 |
| 20260503072004 | 40 | 0 | 0.0 | 0.0 | 0.00 | 0.00 | 0.00 | 85 | 1016.7 |
| 20260503071503 | 40 | 0 | 0.0 | 0.0 | 0.00 | 0.00 | 0.00 | 85 | 1016.7 |
| 20260503071004 | 40 | 0 | 0.0 | 0.0 | 0.00 | 0.00 | 0.00 | 85 | 1016.6 |
| 20260503070504 | 40 | 0 | 0.0 | 0.0 | 0.00 | 0.00 | 0.00 | 85 | 1016.5 |
| 20260503054504 | 41 | 158 | 0.0 | 0.9 | 0.00 | 0.00 | 0.00 | 83 | 1016.6 |
| 20260503054004 | 41 | 158 | 0.0 | 0.9 | 0.00 | 0.00 | 0.00 | 83 | 1016.5 |
| 20260503053504 | 41 | 158 | 0.0 | 0.9 | 0.00 | 0.00 | 0.00 | 83 | 1016.5 |
| 20260503052504 | 41 | 0 | 0.0 | 0.0 | 0.00 | 0.00 | 0.00 | 83 | 1016.5 |
| 20260503051004 | 41 | 0 | 0.0 | 0.0 | 0.00 | 0.00 | 0.00 | 82 | 1016.6 |
| 20260503050504 | 41 | 0 | 0.0 | 0.0 | 0.00 | 0.00 | 0.00 | 82 | 1016.5 |
| 20260503050004 | 41 | 0 | 0.0 | 0.0 | 0.00 | 0.00 | 0.00 | 81 | 1016.5 |
| 20260503045504 | 41 | 0 | 0.0 | 0.0 | 0.00 | 0.00 | 0.00 | 81 | 1016.5 |
| 20260503045004 | 42 | 159 | 0.0 | 0.9 | 0.00 | 0.00 | 0.00 | 81 | 1016.4 |
| 20260503044504 | 42 | 159 | 0.0 | 0.9 | 0.00 | 0.00 | 0.00 | 81 | 1016.5 |
| 20260503044004 | 42 | 0 | 0.0 | 0.0 | 0.00 | 0.00 | 0.00 | 80 | 1016.4 |
| 20260503043504 | 42 | 0 | 0.0 | 0.0 | 0.00 | 0.00 | 0.00 | 80 | 1016.3 |
| 20260503043004 | 42 | 0 | 0.0 | 0.0 | 0.00 | 0.00 | 0.00 | 80 | 1016.3 |
| 20260503042504 | 42 | 0 | 0.0 | 0.0 | 0.00 | 0.00 | 0.00 | 80 | 1016.3 |
| 20260503041504 | 42 | 0 | 0.0 | 0.0 | 0.00 | 0.00 | 0.00 | 79 | 1016.1 |
| 20260503041004 | 43 | 0 | 0.0 | 0.0 | 0.00 | 0.00 | 0.00 | 79 | 1016.0 |
| 20260503040504 | 43 | 0 | 0.0 | 0.0 | 0.00 | 0.00 | 0.00 | 80 | 1016.0 |
| 20260503040005 | 43 | 0 | 0.0 | 0.0 | 0.00 | 0.00 | 0.00 | 79 | 1016.0 |
| 20260503035004 | 43 | 158 | 0.0 | 2.6 | 0.00 | 0.00 | 0.00 | 78 | 1016.0 |
| 20260503034504 | 43 | 158 | 0.0 | 2.6 | 0.00 | 0.00 | 0.00 | 78 | 1015.9 |
| 20260503034004 | 43 | 158 | 0.0 | 2.6 | 0.00 | 0.00 | 0.00 | 79 | 1015.9 |
| 20260503033504 | 43 | 158 | 0.0 | 0.9 | 0.00 | 0.00 | 0.00 | 78 | 1015.9 |
| 20260503033004 | 43 | 159 | 0.0 | 2.6 | 0.00 | 0.00 | 0.00 | 77 | 1015.8 |
| 20260503032004 | 44 | 158 | 0.0 | 0.9 | 0.00 | 0.00 | 0.00 | 76 | 1015.7 |
| 20260503031504 | 44 | 158 | 0.0 | 0.9 | 0.00 | 0.00 | 0.00 | 76 | 1015.6 |
| 20260503031004 | 44 | 158 | 0.0 | 0.9 | 0.00 | 0.00 | 0.00 | 76 | 1015.6 |
| 20260503030005 | 44 | 158 | 0.0 | 0.9 | 0.00 | 0.00 | 0.00 | 74 | 1015.5 |
| 20260503025004 | 45 | 158 | 0.0 | 0.9 | 0.00 | 0.00 | 0.00 | 74 | 1015.4 |
| 20260503024504 | 45 | 158 | 0.0 | 0.9 | 0.00 | 0.00 | 0.00 | 73 | 1015.4 |
| 20260503024004 | 45 | 159 | 0.0 | 2.6 | 0.00 | 0.00 | 0.00 | 73 | 1015.3 |
| 20260503023504 | 45 | 159 | 0.0 | 2.6 | 0.00 | 0.00 | 0.00 | 73 | 1015.3 |
| 20260503023005 | 45 | 159 | 0.0 | 2.6 | 0.00 | 0.00 | 0.00 | 72 | 1015.3 |
| 20260503022505 | 46 | 158 | 0.0 | 0.9 | 0.00 | 0.00 | 0.00 | 71 | 1015.2 |
| 20260503022004 | 46 | 159 | 0.0 | 5.2 | 0.00 | 0.00 | 0.00 | 72 | 1015.2 |
| 20260503021504 | 46 | 159 | 0.9 | 5.2 | 0.00 | 0.00 | 0.00 | 70 | 1015.1 |
| 20260503021004 | 46 | 159 | 0.0 | 0.9 | 0.00 | 0.00 | 0.00 | 70 | 1015.1 |
| 20260503020004 | 47 | 164 | 0.9 | 5.2 | 0.00 | 0.00 | 0.00 | 68 | 1015.0 |
| 20260503015504 | 47 | 164 | 0.0 | 2.6 | 0.00 | 0.00 | 0.00 | 68 | 1015.1 |
| 20260503015004 | 48 | 166 | 0.9 | 6.1 | 0.00 | 0.00 | 0.00 | 66 | 1015.0 |
| 20260503014004 | 49 | 178 | 0.0 | 2.6 | 0.00 | 0.00 | 0.00 | 66 | 1014.9 |
| 20260503013504 | 49 | 178 | 0.0 | 2.6 | 0.00 | 0.00 | 0.00 | 64 | 1014.8 |
| 20260503013004 | 50 | 178 | 0.0 | 2.6 | 0.00 | 0.00 | 0.00 | 64 | 1014.8 |
| 20260503012504 | 50 | 178 | 0.0 | 2.6 | 0.00 | 0.00 | 0.00 | 61 | 1014.7 |
| 20260503012004 | 51 | 178 | 0.0 | 0.9 | 0.00 | 0.00 | 0.00 | 61 | 1014.6 |
| 20260503011504 | 51 | 177 | 0.9 | 0.9 | 0.00 | 0.00 | 0.00 | 57 | 1014.5 |
| 20260503011004 | 51 | 176 | 0.9 | 3.5 | 0.00 | 0.00 | 0.00 | 56 | 1014.5 |
| 20260503010004 | 51 | 166 | 0.9 | 5.2 | 0.00 | 0.00 | 0.00 | 55 | 1014.3 |
| 20260503005503 | 52 | 166 | 0.9 | 5.2 | 0.00 | 0.00 | 0.00 | 56 | 1014.3 |
| 20260503005003 | 52 | 166 | 0.9 | 5.2 | 0.00 | 0.00 | 0.00 | 54 | 1014.1 |
| 20260503004503 | 52 | 167 | 0.9 | 5.2 | 0.00 | 0.00 | 0.00 | 54 | 1014.1 |
| 20260503003004 | 52 | 159 | 2.6 | 13.0 | 0.00 | 0.00 | 0.00 | 53 | 1013.9 |
| 20260503002504 | 52 | 145 | 1.7 | 7.0 | 0.00 | 0.00 | 0.00 | 52 | 1013.8 |
| 20260503001003 | 53 | 157 | 1.7 | 7.0 | 0.00 | 0.00 | 0.00 | 52 | 1013.4 |
| 20260503000503 | 53 | 166 | 1.7 | 6.1 | 0.00 | 0.00 | 0.00 | 51 | 1013.3 |
| 20260502235503 | 54 | 164 | 1.7 | 5.2 | 0.00 | 0.00 | 0.00 | 52 | 1013.3 |
| 20260502235003 | 54 | 170 | 1.7 | 5.2 | 0.00 | 0.00 | 0.00 | 51 | 1013.1 |
| 20260502234504 | 54 | 172 | 1.7 | 5.2 | 0.00 | 0.00 | 0.00 | 50 | 1013.0 |
| 20260502234003 | 54 | 164 | 1.7 | 5.2 | 0.00 | 0.00 | 0.00 | 51 | 1013.0 |
| 20260502233503 | 54 | 163 | 1.7 | 6.1 | 0.00 | 0.00 | 0.00 | 50 | 1012.9 |
| 20260502233004 | 54 | 162 | 2.6 | 6.1 | 0.00 | 0.00 | 0.00 | 50 | 1012.9 |
| 20260502232504 | 54 | 164 | 2.6 | 7.0 | 0.00 | 0.00 | 0.00 | 50 | 1012.8 |
| 20260502231004 | 54 | 152 | 2.6 | 7.0 | 0.00 | 0.00 | 0.00 | 50 | 1012.7 |
| 20260502230503 | 54 | 163 | 2.6 | 7.0 | 0.00 | 0.00 | 0.00 | 49 | 1012.6 |
| 20260502225503 | 54 | 175 | 2.6 | 7.0 | 0.00 | 0.00 | 0.00 | 49 | 1012.6 |
| 20260502225005 | 55 | 168 | 2.6 | 7.0 | 0.00 | 0.00 | 0.00 | 48 | 1012.5 |
| 20260502224504 | 55 | 162 | 2.6 | 7.0 | 0.00 | 0.00 | 0.00 | 49 | 1012.4 |
| 20260502224004 | 55 | 167 | 2.6 | 7.0 | 0.00 | 0.00 | 0.00 | 48 | 1012.4 |
| 20260502223004 | 56 | 171 | 4.3 | 11.3 | 0.00 | 0.00 | 0.00 | 47 | 1012.5 |
| 20260502222004 | 57 | 159 | 3.5 | 9.6 | 0.00 | 0.00 | 0.00 | 46 | 1012.4 |
| 20260502221504 | 57 | 154 | 3.5 | 9.6 | 0.00 | 0.00 | 0.00 | 49 | 1012.3 |
| 20260502221004 | 57 | 160 | 3.5 | 9.6 | 0.00 | 0.00 | 0.00 | 46 | 1012.3 |
| 20260502220504 | 57 | 159 | 3.5 | 9.6 | 0.00 | 0.00 | 0.00 | 47 | 1012.3 |
| 20260502220004 | 57 | 156 | 3.5 | 9.6 | 0.00 | 0.00 | 0.00 | 48 | 1012.3 |
| 20260502215503 | 57 | 158 | 3.5 | 11.3 | 0.00 | 0.00 | 0.00 | 46 | 1012.1 |
| 20260502215004 | 58 | 158 | 4.3 | 11.3 | 0.00 | 0.00 | 0.00 | 47 | 1012.1 |
| 20260502214502 | 57 | 158 | 4.3 | 11.3 | 0.00 | 0.00 | 0.00 | 45 | 1011.9 |
| 20260502214002 | 57 | 160 | 4.3 | 11.3 | 0.00 | 0.00 | 0.00 | 45 | 1011.8 |